createdAt,value
2022-12-05T00:01:00.609Z,6.03
2022-12-05T00:03:27.361Z,6.01
2022-12-05T00:05:54.107Z,6.00
2022-12-05T00:08:20.870Z,6.01
2022-12-05T00:10:47.629Z,6.00
2022-12-05T00:13:14.363Z,6.02
2022-12-05T00:15:41.508Z,6.01
2022-12-05T00:18:08.375Z,5.99
2022-12-05T00:20:35.216Z,5.99
2022-12-05T00:23:02.116Z,6.01
2022-12-05T00:25:28.981Z,5.99
2022-12-05T00:27:55.709Z,5.97
2022-12-05T00:30:22.527Z,5.99
2022-12-05T00:32:49.265Z,6.00
2022-12-05T00:35:16.228Z,5.97
2022-12-05T00:37:42.969Z,5.97
2022-12-05T00:40:10.120Z,5.95
2022-12-05T00:42:36.829Z,5.95
2022-12-05T00:45:04.210Z,5.98
2022-12-05T00:47:31.010Z,5.97
2022-12-05T00:49:57.964Z,5.99
2022-12-05T00:52:24.809Z,5.97
2022-12-05T00:54:51.521Z,5.95
2022-12-05T00:57:18.352Z,5.96
2022-12-05T00:59:45.231Z,5.95
2022-12-05T01:02:11.948Z,5.94
2022-12-05T01:04:38.735Z,5.91
2022-12-05T01:07:05.672Z,5.92
2022-12-05T01:09:32.391Z,5.92
2022-12-05T01:11:59.379Z,5.92
2022-12-05T01:14:26.870Z,5.92
2022-12-05T01:16:55.857Z,5.89
2022-12-05T01:19:28.296Z,5.87
2022-12-05T01:21:55.572Z,5.90
2022-12-05T01:24:23.266Z,5.90
2022-12-05T01:26:50.488Z,5.90
2022-12-05T01:29:20.519Z,5.92
2022-12-05T01:31:47.392Z,5.93
2022-12-05T01:34:16.034Z,5.93
2022-12-05T01:36:43.314Z,5.92
2022-12-05T01:39:11.862Z,5.91
2022-12-05T01:41:44.200Z,5.92
2022-12-05T01:44:10.874Z,5.93
2022-12-05T01:46:51.619Z,5.94
2022-12-05T01:49:23.403Z,5.95
2022-12-05T01:51:53.322Z,5.94
2022-12-05T01:54:22.661Z,5.94
2022-12-05T01:57:01.650Z,5.93
2022-12-05T01:59:32.850Z,5.92
2022-12-05T02:02:00.243Z,5.93
2022-12-05T02:04:27.827Z,5.92
2022-12-05T02:06:55.338Z,5.91
2022-12-05T02:09:23.363Z,5.92
2022-12-05T02:11:56.223Z,5.92
2022-12-05T02:14:38.483Z,5.94
2022-12-05T02:17:51.172Z,5.94
2022-12-05T02:20:33.207Z,5.92
2022-12-05T02:23:11.953Z,5.93
2022-12-05T02:26:03.400Z,5.90
2022-12-05T02:28:48.615Z,5.90
2022-12-05T02:31:35.337Z,5.87
2022-12-05T02:34:46.284Z,5.86
2022-12-05T02:37:23.219Z,5.89
2022-12-05T02:39:55.864Z,5.87
2022-12-05T02:42:33.287Z,5.89
2022-12-05T02:45:07.331Z,5.89
2022-12-05T02:47:39.065Z,5.88
2022-12-05T02:50:09.128Z,5.88
2022-12-05T02:52:36.559Z,5.87
2022-12-05T02:55:04.461Z,5.89
2022-12-05T02:57:32.950Z,5.90
2022-12-05T02:59:59.903Z,5.87
2022-12-05T03:02:32.204Z,5.90
2022-12-05T03:05:19.559Z,5.88
2022-12-05T03:07:49.297Z,5.86
2022-12-05T03:10:22.136Z,5.90
2022-12-05T03:12:55.862Z,5.86
2022-12-05T03:15:27.275Z,5.86
2022-12-05T03:18:06.580Z,5.86
2022-12-05T03:20:41.534Z,5.86
2022-12-05T03:23:24.141Z,5.85
2022-12-05T03:25:55.660Z,5.86
2022-12-05T03:28:35.289Z,5.87
2022-12-05T03:31:08.570Z,5.86
2022-12-05T03:33:45.188Z,5.85
2022-12-05T03:36:22.871Z,5.86
2022-12-05T03:38:56.926Z,5.87
2022-12-05T03:41:32.829Z,5.84
2022-12-05T03:44:25.466Z,5.80
2022-12-05T03:47:21.503Z,5.83
2022-12-05T03:49:52.855Z,5.85
2022-12-05T03:52:41.415Z,5.84
2022-12-05T03:55:18.715Z,5.83
2022-12-05T03:58:02.402Z,5.82
2022-12-05T04:00:35.280Z,5.83
2022-12-05T04:03:10.685Z,5.83
2022-12-05T04:05:43.841Z,5.79
2022-12-05T04:08:20.082Z,5.79
2022-12-05T04:10:49.748Z,5.82
2022-12-05T04:13:21.370Z,5.82
2022-12-05T04:16:12.060Z,5.82
2022-12-05T04:18:46.767Z,5.81
2022-12-05T04:21:33.582Z,5.80
2022-12-05T04:24:19.533Z,5.83
2022-12-05T04:26:54.222Z,5.81
2022-12-05T04:29:32.315Z,5.79
2022-12-05T04:32:06.039Z,5.78
2022-12-05T04:34:35.239Z,5.78
2022-12-05T04:37:11.691Z,5.77
2022-12-05T04:39:46.370Z,5.78
2022-12-05T04:42:22.914Z,5.78
2022-12-05T04:45:11.748Z,5.77
2022-12-05T04:47:46.210Z,5.79
2022-12-05T04:50:15.802Z,5.78
2022-12-05T04:52:45.614Z,5.79
2022-12-05T04:55:15.492Z,5.79
2022-12-05T04:58:11.530Z,5.76
2022-12-05T05:01:03.220Z,5.76
2022-12-05T05:04:07.064Z,5.77
2022-12-05T05:06:36.546Z,5.78
2022-12-05T05:09:04.181Z,5.79
2022-12-05T05:11:34.267Z,5.80
2022-12-05T05:14:01.827Z,5.78
2022-12-05T05:16:34.299Z,5.75
2022-12-05T05:19:01.180Z,5.75
2022-12-05T05:21:29.471Z,5.74
2022-12-05T05:23:57.200Z,5.76
2022-12-05T05:26:25.584Z,5.76
2022-12-05T05:28:52.984Z,5.76
2022-12-05T05:31:20.990Z,5.75
2022-12-05T05:33:52.469Z,5.77
2022-12-05T05:36:20.719Z,5.78
2022-12-05T05:38:49.877Z,5.74
2022-12-05T05:41:19.283Z,5.75
2022-12-05T05:43:47.068Z,5.75
2022-12-05T05:46:14.626Z,5.76
2022-12-05T05:48:41.645Z,5.74
2022-12-05T05:51:10.514Z,5.72
2022-12-05T05:53:37.889Z,5.72
2022-12-05T05:56:09.044Z,5.75
2022-12-05T05:58:36.384Z,5.74
2022-12-05T06:01:05.481Z,5.75
2022-12-05T06:03:32.424Z,5.75
2022-12-05T06:06:06.442Z,5.76
2022-12-05T06:08:36.105Z,5.74
2022-12-05T06:11:11.323Z,5.73
2022-12-05T06:13:38.194Z,5.75
2022-12-05T06:16:07.077Z,5.75
2022-12-05T06:18:34.344Z,5.75
2022-12-05T06:21:01.524Z,5.73
2022-12-05T06:23:28.557Z,5.71
2022-12-05T06:25:56.786Z,5.70
2022-12-05T06:28:26.077Z,5.69
2022-12-05T06:30:53.474Z,5.69
2022-12-05T06:33:20.361Z,5.70
2022-12-05T06:35:47.485Z,5.68
2022-12-05T06:38:14.583Z,5.72
2022-12-05T06:40:43.176Z,5.74
2022-12-05T06:43:10.585Z,5.72
2022-12-05T06:45:41.541Z,5.75
2022-12-05T06:48:08.309Z,5.77
2022-12-05T06:50:35.007Z,5.74
2022-12-05T06:53:01.790Z,5.75
2022-12-05T06:55:28.562Z,5.76
2022-12-05T06:57:55.305Z,5.76
2022-12-05T07:00:40.767Z,5.75
2022-12-05T07:03:07.586Z,5.73
2022-12-05T07:05:34.311Z,5.73
2022-12-05T07:08:01.125Z,5.74
2022-12-05T07:10:27.847Z,5.74
2022-12-05T07:12:54.639Z,5.76
2022-12-05T07:15:21.355Z,5.74
2022-12-05T07:17:48.071Z,5.74
2022-12-05T07:20:17.923Z,5.75
2022-12-05T07:22:45.876Z,5.78
2022-12-05T07:25:12.708Z,5.78
2022-12-05T07:27:39.480Z,5.76
2022-12-05T07:30:06.958Z,5.77
2022-12-05T07:32:34.524Z,5.80
2022-12-05T07:35:01.350Z,5.78
2022-12-05T07:37:28.102Z,5.75
2022-12-05T07:39:55.025Z,5.77
2022-12-05T07:42:21.991Z,5.79
2022-12-05T07:44:48.789Z,5.80
2022-12-05T07:47:15.719Z,5.80
2022-12-05T07:49:42.663Z,5.81
2022-12-05T07:52:10.063Z,5.79
2022-12-05T07:54:36.851Z,5.70
2022-12-05T07:57:03.699Z,5.76
2022-12-05T07:59:30.550Z,5.75
2022-12-05T08:01:57.333Z,5.75
2022-12-05T08:04:24.143Z,5.77
2022-12-05T08:06:50.865Z,5.79
2022-12-05T08:09:17.590Z,5.80
2022-12-05T08:11:49.606Z,5.81
2022-12-05T08:14:19.159Z,5.81
2022-12-05T08:16:45.997Z,5.79
2022-12-05T08:19:13.806Z,5.81
2022-12-05T08:21:40.648Z,5.79
2022-12-05T08:24:08.041Z,5.82
2022-12-05T08:26:36.411Z,5.80
2022-12-05T08:29:10.118Z,5.81
2022-12-05T08:31:41.433Z,5.84
2022-12-05T08:34:08.250Z,5.82
2022-12-05T08:36:34.947Z,5.80
2022-12-05T08:39:04.945Z,5.87
2022-12-05T08:41:32.170Z,5.88
2022-12-05T08:44:03.224Z,5.86
2022-12-05T08:46:31.245Z,5.89
2022-12-05T08:48:58.036Z,5.86
2022-12-05T08:51:24.820Z,5.81
2022-12-05T08:53:51.621Z,5.87
2022-12-05T08:56:23.402Z,5.86
2022-12-05T08:58:53.677Z,5.87
2022-12-05T09:01:21.848Z,5.89
2022-12-05T09:03:48.926Z,5.88
2022-12-05T09:06:17.009Z,5.89
2022-12-05T09:08:44.672Z,5.86
2022-12-05T09:11:14.817Z,5.87
2022-12-05T09:13:42.146Z,5.85
2022-12-05T09:16:10.941Z,5.85
2022-12-05T09:18:38.285Z,5.86
2022-12-05T09:21:17.762Z,5.85
2022-12-05T09:23:45.163Z,5.92
2022-12-05T09:26:15.180Z,5.95
2022-12-05T09:28:42.452Z,5.96
2022-12-05T09:31:12.333Z,5.98
2022-12-05T09:33:39.395Z,5.99
2022-12-05T09:36:14.909Z,6.00
2022-12-05T09:38:42.310Z,6.00
2022-12-05T09:41:18.243Z,5.97
2022-12-05T09:43:57.112Z,5.98
2022-12-05T09:46:49.833Z,6.00
2022-12-05T09:49:16.808Z,6.04
2022-12-05T09:51:52.173Z,6.06
2022-12-05T09:54:23.468Z,6.05
2022-12-05T09:56:51.984Z,6.06
2022-12-05T09:59:20.692Z,6.05
2022-12-05T10:02:21.559Z,6.09
2022-12-05T10:05:01.339Z,6.08
2022-12-05T10:07:58.129Z,6.06
2022-12-05T10:10:46.873Z,6.11
2022-12-05T10:13:22.214Z,6.10
2022-12-05T10:15:57.204Z,6.09
2022-12-05T10:18:30.272Z,6.11
2022-12-05T10:20:57.071Z,6.17
2022-12-05T10:23:56.033Z,6.15
2022-12-05T10:26:17.253Z,6.14
2022-12-05T10:29:02.826Z,6.14
2022-12-05T10:31:35.733Z,6.20
2022-12-05T10:34:33.386Z,6.24
2022-12-05T10:37:11.498Z,6.26
2022-12-05T10:39:38.584Z,6.27
2022-12-05T10:42:12.421Z,6.27
2022-12-05T10:44:39.992Z,6.25
2022-12-05T10:47:06.834Z,6.24
2022-12-05T10:49:34.845Z,6.25
2022-12-05T10:52:01.922Z,6.26
2022-12-05T10:54:42.561Z,6.31
2022-12-05T10:57:27.751Z,6.31
2022-12-05T10:59:56.443Z,6.30
2022-12-05T11:02:31.434Z,6.32
2022-12-05T11:05:04.456Z,6.36
2022-12-05T11:07:35.553Z,6.37
2022-12-05T11:10:23.566Z,6.35
2022-12-05T11:12:56.037Z,6.32
2022-12-05T11:15:25.785Z,6.34
2022-12-05T11:17:55.074Z,6.35
2022-12-05T11:20:22.031Z,6.39
2022-12-05T11:22:56.656Z,6.36
2022-12-05T11:25:32.050Z,6.40
2022-12-05T11:28:02.002Z,6.43
2022-12-05T11:30:29.979Z,6.45
2022-12-05T11:33:15.503Z,6.44
2022-12-05T11:35:42.875Z,6.45
2022-12-05T11:38:12.054Z,6.47
2022-12-05T11:40:54.584Z,6.50
2022-12-05T11:43:23.965Z,6.51
2022-12-05T11:46:29.516Z,6.52
2022-12-05T11:49:17.984Z,6.55
2022-12-05T11:52:00.907Z,6.51
2022-12-05T11:55:04.447Z,6.56
2022-12-05T11:57:47.391Z,6.59
2022-12-05T12:00:31.756Z,6.56
2022-12-05T12:03:32.865Z,6.58
2022-12-05T12:06:27.414Z,6.59
2022-12-05T12:09:00.094Z,6.61
2022-12-05T12:11:38.160Z,6.62
2022-12-05T12:14:19.722Z,6.62
2022-12-05T12:17:01.754Z,6.63
2022-12-05T12:19:34.671Z,6.61
2022-12-05T12:22:11.443Z,6.63
2022-12-05T12:25:20.204Z,6.60
2022-12-05T12:28:24.591Z,6.62
2022-12-05T12:31:00.540Z,6.63
2022-12-05T12:33:36.484Z,6.65
2022-12-05T12:36:15.400Z,6.66
2022-12-05T12:39:04.682Z,6.68
2022-12-05T12:41:51.465Z,6.68
2022-12-05T12:44:24.194Z,6.69
2022-12-05T12:46:53.927Z,6.68
2022-12-05T12:49:46.110Z,6.67
2022-12-05T12:52:20.782Z,6.67
2022-12-05T12:55:11.710Z,6.69
2022-12-05T12:57:38.333Z,6.67
2022-12-05T13:00:13.055Z,6.65
2022-12-05T13:02:47.435Z,6.63
2022-12-05T13:05:22.813Z,6.66
2022-12-05T13:08:26.559Z,6.67
2022-12-05T13:10:54.227Z,6.67
2022-12-05T13:13:26.986Z,6.68
2022-12-05T13:16:00.919Z,6.68
2022-12-05T13:18:28.239Z,6.67
2022-12-05T13:20:58.810Z,6.67
2022-12-05T13:23:32.417Z,6.68
2022-12-05T13:26:01.338Z,6.68
2022-12-05T13:28:32.496Z,6.66
2022-12-05T13:31:05.901Z,6.66
2022-12-05T13:33:43.431Z,6.67
2022-12-05T13:36:32.368Z,6.70
2022-12-05T13:39:23.992Z,6.71
2022-12-05T13:42:16.034Z,6.71
2022-12-05T13:44:47.565Z,6.72
2022-12-05T13:47:29.234Z,6.72
2022-12-05T13:50:29.558Z,6.72
2022-12-05T13:53:04.944Z,6.73
2022-12-05T13:55:36.584Z,6.71
2022-12-05T13:58:22.051Z,6.74
2022-12-05T14:00:52.857Z,6.74
2022-12-05T14:03:34.901Z,6.74
2022-12-05T14:06:01.798Z,6.75
2022-12-05T14:08:35.858Z,6.75
2022-12-05T14:11:09.885Z,6.76
2022-12-05T14:13:42.536Z,6.75
2022-12-05T14:16:35.519Z,6.75
2022-12-05T14:19:20.908Z,6.75
2022-12-05T14:22:02.911Z,6.76
2022-12-05T14:24:46.090Z,6.76
2022-12-05T14:27:43.864Z,6.78
2022-12-05T14:30:22.781Z,6.77
2022-12-05T14:32:52.223Z,6.78
2022-12-05T14:35:47.697Z,6.77
2022-12-05T14:38:29.235Z,6.80
2022-12-05T14:41:06.260Z,6.78
2022-12-05T14:43:34.940Z,6.77
2022-12-05T14:46:04.908Z,6.76
2022-12-05T14:48:48.057Z,6.77
2022-12-05T14:51:30.329Z,6.76
2022-12-05T14:54:15.305Z,6.78
2022-12-05T14:56:49.780Z,6.77
2022-12-05T14:59:28.171Z,6.77
2022-12-05T15:01:58.388Z,6.76
2022-12-05T15:04:55.692Z,6.77
2022-12-05T15:07:36.509Z,6.78
2022-12-05T15:10:12.675Z,6.77
2022-12-05T15:12:39.947Z,6.77
2022-12-05T15:15:14.089Z,6.78
2022-12-05T15:17:46.003Z,6.77
2022-12-05T15:20:42.655Z,6.77
2022-12-05T15:23:38.224Z,6.77
2022-12-05T15:26:45.004Z,6.77
2022-12-05T15:29:13.220Z,6.75
2022-12-05T15:31:44.703Z,6.76
2022-12-05T15:34:30.401Z,6.76
2022-12-05T15:37:23.450Z,6.74
2022-12-05T15:39:57.814Z,6.75
2022-12-05T15:42:30.079Z,6.77
2022-12-05T15:45:12.624Z,6.76
2022-12-05T15:47:43.898Z,6.77
2022-12-05T15:50:17.251Z,6.76
2022-12-05T15:52:53.802Z,6.77
2022-12-05T15:55:47.064Z,6.78
2022-12-05T15:58:32.642Z,6.76
2022-12-05T16:01:21.247Z,6.76
2022-12-05T16:03:57.200Z,6.77
2022-12-05T16:06:39.330Z,6.77
2022-12-05T16:09:15.167Z,6.77
2022-12-05T16:12:02.127Z,6.77
2022-12-05T16:17:27.239Z,6.79
2022-12-05T16:19:54.025Z,6.80
2022-12-05T16:22:26.336Z,6.78
2022-12-05T16:25:01.533Z,6.78
2022-12-05T16:27:33.282Z,6.78
2022-12-05T16:30:12.236Z,6.78
2022-12-05T16:32:40.712Z,6.78
2022-12-05T16:35:46.943Z,6.78
2022-12-05T16:38:29.962Z,6.79
2022-12-05T16:41:06.136Z,6.79
2022-12-05T16:43:33.434Z,6.80
2022-12-05T16:46:27.834Z,6.81
2022-12-05T16:49:13.742Z,6.80
2022-12-05T16:51:42.965Z,6.81
2022-12-05T16:54:10.086Z,6.83
2022-12-05T16:56:37.759Z,6.81
2022-12-05T16:59:06.558Z,6.82
2022-12-05T17:01:38.661Z,6.83
2022-12-05T17:04:06.637Z,6.82
2022-12-05T17:06:33.473Z,6.83
2022-12-05T17:09:00.312Z,6.83
2022-12-05T17:11:29.924Z,6.84
2022-12-05T17:13:58.247Z,6.83
2022-12-05T17:16:26.794Z,6.84
2022-12-05T17:18:54.079Z,6.85
2022-12-05T17:21:24.619Z,6.85
2022-12-05T17:23:52.038Z,6.84
2022-12-05T17:26:21.551Z,6.86
2022-12-05T17:28:49.083Z,6.86
2022-12-05T17:31:18.480Z,6.84
2022-12-05T17:33:46.336Z,6.84
2022-12-05T17:36:15.287Z,6.86
2022-12-05T17:38:43.668Z,6.86
2022-12-05T17:41:23.316Z,6.88
2022-12-05T17:43:51.545Z,6.88
2022-12-05T17:46:22.328Z,6.86
2022-12-05T17:48:51.278Z,6.84
2022-12-05T17:51:20.084Z,6.84
2022-12-05T17:53:47.739Z,6.84
2022-12-05T17:56:15.788Z,6.87
2022-12-05T17:58:43.208Z,6.87
2022-12-05T18:01:15.491Z,6.87
2022-12-05T18:03:43.141Z,6.87
2022-12-05T18:06:10.315Z,6.86
2022-12-05T18:08:39.919Z,6.85
2022-12-05T18:11:07.445Z,6.86
2022-12-05T18:13:34.652Z,6.87
2022-12-05T18:16:02.618Z,6.89
2022-12-05T18:18:30.765Z,6.86
2022-12-05T18:21:11.752Z,6.86
2022-12-05T18:23:39.032Z,6.88
2022-12-05T18:26:07.604Z,6.89
2022-12-05T18:28:37.485Z,6.85
2022-12-05T18:31:13.993Z,6.87
2022-12-05T18:33:43.799Z,6.88
2022-12-05T18:36:14.624Z,6.88
2022-12-05T18:38:45.868Z,6.90
2022-12-05T18:41:13.053Z,6.91
2022-12-05T18:43:40.628Z,6.90
2022-12-05T18:46:07.714Z,6.90
2022-12-05T18:48:40.754Z,6.89
2022-12-05T18:51:16.473Z,6.91
2022-12-05T18:53:51.753Z,6.89
2022-12-05T18:56:23.380Z,6.91
2022-12-05T18:58:59.362Z,6.91
2022-12-05T19:01:28.310Z,6.90
2022-12-05T19:03:58.538Z,6.92
2022-12-05T19:06:30.167Z,6.92
2022-12-05T19:09:00.047Z,6.91
2022-12-05T19:11:28.176Z,6.91
2022-12-05T19:14:00.973Z,6.91
2022-12-05T19:16:32.436Z,6.91
2022-12-05T19:19:01.677Z,6.91
2022-12-05T19:21:31.083Z,6.92
2022-12-05T19:23:59.616Z,6.92
2022-12-05T19:26:27.059Z,6.91
2022-12-05T19:28:54.293Z,6.90
2022-12-05T19:31:24.764Z,6.91
2022-12-05T19:33:59.225Z,6.89
2022-12-05T19:36:32.212Z,6.89
2022-12-05T19:39:00.197Z,6.89
2022-12-05T19:41:30.376Z,6.92
2022-12-05T19:44:01.855Z,6.91
2022-12-05T19:46:30.582Z,6.91
2022-12-05T19:49:00.204Z,6.96
2022-12-05T19:51:37.196Z,6.95
2022-12-05T19:54:08.801Z,6.93
2022-12-05T19:56:37.382Z,6.95
2022-12-05T19:59:05.729Z,6.96
2022-12-05T20:01:39.610Z,6.97
2022-12-05T20:04:09.810Z,6.96
2022-12-05T20:06:39.845Z,6.95
2022-12-05T20:09:08.188Z,6.95
2022-12-05T20:11:38.199Z,6.92
2022-12-05T20:14:05.052Z,6.91
2022-12-05T20:16:34.120Z,6.93
2022-12-05T20:19:01.690Z,6.98
2022-12-05T20:21:31.812Z,6.95
2022-12-05T20:24:00.064Z,6.96
2022-12-05T20:26:30.780Z,6.96
2022-12-05T20:28:59.394Z,7.00
2022-12-05T20:31:30.077Z,6.97
2022-12-05T20:33:57.826Z,6.96
2022-12-05T20:36:30.800Z,6.98
2022-12-05T20:39:03.607Z,6.98
2022-12-05T20:41:31.650Z,6.97
2022-12-05T20:44:04.267Z,6.98
2022-12-05T20:46:32.847Z,6.99
2022-12-05T20:49:00.238Z,6.97
2022-12-05T20:51:30.735Z,6.98
2022-12-05T20:53:59.479Z,6.95
2022-12-05T20:56:33.257Z,6.96
2022-12-05T20:59:02.553Z,6.96
2022-12-05T21:01:33.627Z,6.95
2022-12-05T21:04:01.636Z,6.96
2022-12-05T21:06:31.287Z,6.98
2022-12-05T21:09:00.279Z,6.95
2022-12-05T21:11:29.261Z,6.92
2022-12-05T21:13:57.518Z,6.97
2022-12-05T21:16:25.194Z,6.97
2022-12-05T21:18:52.931Z,6.96
2022-12-05T21:21:22.922Z,6.94
2022-12-05T21:23:58.580Z,6.95
2022-12-05T21:26:27.930Z,6.96
2022-12-05T21:28:55.766Z,6.96
2022-12-05T21:31:25.396Z,6.98
2022-12-05T21:33:54.914Z,6.98
2022-12-05T21:36:22.807Z,6.95
2022-12-05T21:38:55.654Z,6.95
2022-12-05T21:41:26.620Z,6.96
2022-12-05T21:43:55.367Z,6.96
2022-12-05T21:46:24.110Z,6.95
2022-12-05T21:48:51.007Z,6.95
2022-12-05T21:51:18.066Z,6.96
2022-12-05T21:53:44.874Z,6.95
2022-12-05T21:56:16.835Z,6.94
2022-12-05T21:58:44.978Z,6.92
2022-12-05T22:01:17.507Z,6.98
2022-12-05T22:03:44.882Z,6.94
2022-12-05T22:06:13.037Z,6.92
2022-12-05T22:08:39.879Z,6.94
2022-12-05T22:11:08.373Z,6.92
2022-12-05T22:13:35.881Z,6.90
2022-12-05T22:16:03.773Z,6.92
2022-12-05T22:18:30.911Z,6.92
2022-12-05T22:21:12.360Z,6.92
2022-12-05T22:23:39.271Z,6.91
2022-12-05T22:26:18.170Z,6.95
2022-12-05T22:28:45.372Z,6.93
2022-12-05T22:31:15.295Z,6.91
2022-12-05T22:33:42.254Z,6.88
2022-12-05T22:36:11.330Z,6.89
2022-12-05T22:38:40.565Z,6.90
2022-12-05T22:41:14.315Z,6.88
2022-12-05T22:43:42.389Z,6.88
2022-12-05T22:46:12.075Z,6.88
2022-12-05T22:48:38.978Z,6.89
2022-12-05T22:51:07.285Z,6.87
2022-12-05T22:53:34.999Z,6.86
2022-12-05T22:56:04.398Z,6.87
2022-12-05T22:58:31.693Z,6.89
2022-12-05T23:01:07.680Z,6.87
2022-12-05T23:03:34.451Z,6.86
2022-12-05T23:06:11.057Z,6.83
2022-12-05T23:08:38.819Z,6.85
2022-12-05T23:11:06.710Z,6.85
2022-12-05T23:13:35.079Z,6.86
2022-12-05T23:16:08.441Z,6.86
2022-12-05T23:18:48.536Z,6.82
2022-12-05T23:21:25.665Z,6.79
2022-12-05T23:23:56.278Z,6.78
2022-12-05T23:26:25.492Z,6.79
2022-12-05T23:28:53.230Z,6.79
2022-12-05T23:31:20.373Z,6.80
2022-12-05T23:33:50.839Z,6.76
2022-12-05T23:36:19.097Z,6.72
2022-12-05T23:38:46.055Z,6.73
2022-12-05T23:41:18.589Z,6.71
2022-12-05T23:43:46.197Z,6.68
2022-12-05T23:46:14.657Z,6.66
2022-12-05T23:48:42.246Z,6.67
2022-12-05T23:51:12.564Z,6.68
2022-12-05T23:53:41.013Z,6.67
2022-12-05T23:56:09.122Z,6.68
2022-12-05T23:58:36.084Z,6.69
